Brileytown, Texas
Current Conditions -  °F | °C
As of 1:15 PM on Friday 28 Nov 2014 (Local Time) from KOCH Reporting Station
Clear Clear  
Wind Chill: 18°   Ceiling: Unl
Heat Index: 18°   Visibility: 10mi
Dew Point:   Wind: 10mph
Humidity: 49%   Direction: 190°S
Pressure: 30.22"   Gusts: NA
Location:  31.7931°N, 94.5281°W
Report Text: KOCH 281915Z AUTO 19009KT 10SM CLR 18/07 A3022 RMK AO1
Loading
Personal Weather Stations






























Interactive Weather Map New forecast layout! Learn more

10-Day Weather Forecast

Advertisements
Track Severe Weather on mobile